sensor_id;sensor_type;location;lat;lon;timestamp;temperature;humidity
18450;DHT22;9354;50.194;7.690;2023-06-10T00:01:47;20.10;99.90
18450;DHT22;9354;50.194;7.690;2023-06-10T00:04:14;20.10;99.90
18450;DHT22;9354;50.194;7.690;2023-06-10T00:06:43;20.00;99.90
18450;DHT22;9354;50.194;7.690;2023-06-10T00:09:11;20.00;99.90
18450;DHT22;9354;50.194;7.690;2023-06-10T00:11:40;19.90;99.90
18450;DHT22;9354;50.194;7.690;2023-06-10T00:14:08;19.80;99.90
18450;DHT22;9354;50.194;7.690;2023-06-10T00:16:35;19.70;99.90
18450;DHT22;9354;50.194;7.690;2023-06-10T00:19:05;19.70;99.90
18450;DHT22;9354;50.194;7.690;2023-06-10T00:21:34;19.60;99.90
18450;DHT22;9354;50.194;7.690;2023-06-10T00:24:04;19.60;99.90
18450;DHT22;9354;50.194;7.690;2023-06-10T00:26:33;19.50;99.90
18450;DHT22;9354;50.194;7.690;2023-06-10T00:29:01;19.50;99.90
18450;DHT22;9354;50.194;7.690;2023-06-10T00:31:29;19.40;99.90
18450;DHT22;9354;50.194;7.690;2023-06-10T00:33:56;19.30;99.90
18450;DHT22;9354;50.194;7.690;2023-06-10T00:36:24;19.30;99.90
18450;DHT22;9354;50.194;7.690;2023-06-10T00:38:52;19.30;99.90
18450;DHT22;9354;50.194;7.690;2023-06-10T00:41:20;19.30;99.90
18450;DHT22;9354;50.194;7.690;2023-06-10T00:43:48;19.30;99.90
18450;DHT22;9354;50.194;7.690;2023-06-10T00:46:16;19.30;99.90
18450;DHT22;9354;50.194;7.690;2023-06-10T00:48:45;19.30;99.90
18450;DHT22;9354;50.194;7.690;2023-06-10T00:51:13;19.30;99.90
18450;DHT22;9354;50.194;7.690;2023-06-10T00:53:41;19.30;99.90
18450;DHT22;9354;50.194;7.690;2023-06-10T00:56:08;19.30;99.90
18450;DHT22;9354;50.194;7.690;2023-06-10T00:58:36;19.30;99.90
18450;DHT22;9354;50.194;7.690;2023-06-10T01:01:05;19.30;99.90
18450;DHT22;9354;50.194;7.690;2023-06-10T01:03:32;19.30;99.90
18450;DHT22;9354;50.194;7.690;2023-06-10T01:06:08;19.30;99.90
18450;DHT22;9354;50.194;7.690;2023-06-10T01:08:45;19.30;99.90
18450;DHT22;9354;50.194;7.690;2023-06-10T01:11:19;19.30;99.90
18450;DHT22;9354;50.194;7.690;2023-06-10T01:13:49;19.30;99.90
18450;DHT22;9354;50.194;7.690;2023-06-10T01:16:21;19.30;99.90
18450;DHT22;9354;50.194;7.690;2023-06-10T01:18:49;19.30;99.90
18450;DHT22;9354;50.194;7.690;2023-06-10T01:21:22;19.30;99.90
18450;DHT22;9354;50.194;7.690;2023-06-10T01:23:52;19.30;99.90
18450;DHT22;9354;50.194;7.690;2023-06-10T01:26:23;19.20;99.90
18450;DHT22;9354;50.194;7.690;2023-06-10T01:28:58;19.20;99.90
18450;DHT22;9354;50.194;7.690;2023-06-10T01:31:36;19.10;99.90
18450;DHT22;9354;50.194;7.690;2023-06-10T01:34:08;19.20;99.90
18450;DHT22;9354;50.194;7.690;2023-06-10T01:36:40;19.20;99.90
18450;DHT22;9354;50.194;7.690;2023-06-10T01:39:11;19.20;99.90
18450;DHT22;9354;50.194;7.690;2023-06-10T01:41:39;19.20;99.90
18450;DHT22;9354;50.194;7.690;2023-06-10T01:44:07;19.10;99.90
18450;DHT22;9354;50.194;7.690;2023-06-10T01:46:35;19.10;99.90
18450;DHT22;9354;50.194;7.690;2023-06-10T01:49:02;19.10;99.90
18450;DHT22;9354;50.194;7.690;2023-06-10T01:51:29;19.00;99.90
18450;DHT22;9354;50.194;7.690;2023-06-10T01:53:59;19.00;99.90
18450;DHT22;9354;50.194;7.690;2023-06-10T01:56:26;19.00;99.90
18450;DHT22;9354;50.194;7.690;2023-06-10T01:58:53;18.90;99.90
18450;DHT22;9354;50.194;7.690;2023-06-10T02:01:25;18.90;99.90
18450;DHT22;9354;50.194;7.690;2023-06-10T02:03:52;18.90;99.90
18450;DHT22;9354;50.194;7.690;2023-06-10T02:06:19;18.80;99.90
18450;DHT22;9354;50.194;7.690;2023-06-10T02:08:47;18.80;99.90
18450;DHT22;9354;50.194;7.690;2023-06-10T02:11:16;18.80;99.90
18450;DHT22;9354;50.194;7.690;2023-06-10T02:13:43;18.70;99.90
18450;DHT22;9354;50.194;7.690;2023-06-10T02:16:10;18.70;99.90
18450;DHT22;9354;50.194;7.690;2023-06-10T02:18:39;18.70;99.90
18450;DHT22;9354;50.194;7.690;2023-06-10T02:21:09;18.60;99.90
18450;DHT22;9354;50.194;7.690;2023-06-10T02:23:36;18.60;99.90
18450;DHT22;9354;50.194;7.690;2023-06-10T02:26:04;18.50;99.90
18450;DHT22;9354;50.194;7.690;2023-06-10T02:28:33;18.50;99.90
18450;DHT22;9354;50.194;7.690;2023-06-10T02:31:00;18.40;99.90
18450;DHT22;9354;50.194;7.690;2023-06-10T02:33:27;18.30;99.90
18450;DHT22;9354;50.194;7.690;2023-06-10T02:35:55;18.30;99.90
18450;DHT22;9354;50.194;7.690;2023-06-10T02:38:23;18.30;99.90
18450;DHT22;9354;50.194;7.690;2023-06-10T02:40:50;18.20;99.90
18450;DHT22;9354;50.194;7.690;2023-06-10T02:43:18;18.20;99.90
18450;DHT22;9354;50.194;7.690;2023-06-10T02:45:47;18.10;99.90
18450;DHT22;9354;50.194;7.690;2023-06-10T02:48:14;18.10;99.90
18450;DHT22;9354;50.194;7.690;2023-06-10T02:50:42;18.10;99.90
18450;DHT22;9354;50.194;7.690;2023-06-10T02:53:09;18.00;99.90
18450;DHT22;9354;50.194;7.690;2023-06-10T02:55:36;18.00;99.90
18450;DHT22;9354;50.194;7.690;2023-06-10T02:58:04;18.00;99.90
18450;DHT22;9354;50.194;7.690;2023-06-10T03:00:31;18.00;99.90
18450;DHT22;9354;50.194;7.690;2023-06-10T03:03:00;18.00;99.90
18450;DHT22;9354;50.194;7.690;2023-06-10T03:05:29;17.90;99.90
18450;DHT22;9354;50.194;7.690;2023-06-10T03:07:57;17.90;99.90
18450;DHT22;9354;50.194;7.690;2023-06-10T03:10:24;17.90;99.90
18450;DHT22;9354;50.194;7.690;2023-06-10T03:12:52;17.80;99.90
18450;DHT22;9354;50.194;7.690;2023-06-10T03:15:20;17.80;99.90
18450;DHT22;9354;50.194;7.690;2023-06-10T03:17:47;17.80;99.90
18450;DHT22;9354;50.194;7.690;2023-06-10T03:20:16;17.80;99.90
18450;DHT22;9354;50.194;7.690;2023-06-10T03:22:44;17.80;99.90
18450;DHT22;9354;50.194;7.690;2023-06-10T03:25:11;17.70;99.90
18450;DHT22;9354;50.194;7.690;2023-06-10T03:27:40;17.70;99.90
18450;DHT22;9354;50.194;7.690;2023-06-10T03:30:08;17.60;99.90
18450;DHT22;9354;50.194;7.690;2023-06-10T03:32:36;17.60;99.90
18450;DHT22;9354;50.194;7.690;2023-06-10T03:35:04;17.60;99.90
18450;DHT22;9354;50.194;7.690;2023-06-10T03:37:34;17.50;99.90
18450;DHT22;9354;50.194;7.690;2023-06-10T03:40:01;17.50;99.90
18450;DHT22;9354;50.194;7.690;2023-06-10T03:42:31;17.50;99.90
18450;DHT22;9354;50.194;7.690;2023-06-10T03:44:59;17.50;99.90
18450;DHT22;9354;50.194;7.690;2023-06-10T03:47:26;17.40;99.90
18450;DHT22;9354;50.194;7.690;2023-06-10T03:49:53;17.40;99.90
18450;DHT22;9354;50.194;7.690;2023-06-10T03:52:22;17.40;99.90
18450;DHT22;9354;50.194;7.690;2023-06-10T03:54:51;17.40;99.90
18450;DHT22;9354;50.194;7.690;2023-06-10T03:57:18;17.50;99.90
18450;DHT22;9354;50.194;7.690;2023-06-10T03:59:46;17.50;99.90
18450;DHT22;9354;50.194;7.690;2023-06-10T04:02:13;17.50;99.90
18450;DHT22;9354;50.194;7.690;2023-06-10T04:04:41;17.50;99.90
18450;DHT22;9354;50.194;7.690;2023-06-10T04:07:08;17.60;99.90
18450;DHT22;9354;50.194;7.690;2023-06-10T04:09:36;17.60;99.90
18450;DHT22;9354;50.194;7.690;2023-06-10T04:12:07;17.60;99.90
18450;DHT22;9354;50.194;7.690;2023-06-10T04:14:36;17.60;99.90
18450;DHT22;9354;50.194;7.690;2023-06-10T04:17:05;17.60;99.90
18450;DHT22;9354;50.194;7.690;2023-06-10T04:19:33;17.60;99.90
18450;DHT22;9354;50.194;7.690;2023-06-10T04:22:01;17.60;99.90
18450;DHT22;9354;50.194;7.690;2023-06-10T04:24:29;17.70;99.90
18450;DHT22;9354;50.194;7.690;2023-06-10T04:26:57;17.70;99.90
18450;DHT22;9354;50.194;7.690;2023-06-10T04:29:25;17.70;99.90
18450;DHT22;9354;50.194;7.690;2023-06-10T04:31:53;17.70;99.90
18450;DHT22;9354;50.194;7.690;2023-06-10T04:34:20;17.80;99.90
18450;DHT22;9354;50.194;7.690;2023-06-10T04:36:48;17.80;99.90
18450;DHT22;9354;50.194;7.690;2023-06-10T04:39:17;17.80;99.90
18450;DHT22;9354;50.194;7.690;2023-06-10T04:41:44;17.90;99.90
18450;DHT22;9354;50.194;7.690;2023-06-10T04:44:12;17.90;99.90
18450;DHT22;9354;50.194;7.690;2023-06-10T04:46:41;17.90;99.90
18450;DHT22;9354;50.194;7.690;2023-06-10T04:49:08;17.90;99.90
18450;DHT22;9354;50.194;7.690;2023-06-10T04:51:35;17.90;99.90
18450;DHT22;9354;50.194;7.690;2023-06-10T04:54:04;18.00;99.90
18450;DHT22;9354;50.194;7.690;2023-06-10T04:56:31;18.10;99.90
18450;DHT22;9354;50.194;7.690;2023-06-10T04:58:58;18.20;99.90
18450;DHT22;9354;50.194;7.690;2023-06-10T05:01:26;18.20;99.90
18450;DHT22;9354;50.194;7.690;2023-06-10T05:03:56;18.30;99.90
18450;DHT22;9354;50.194;7.690;2023-06-10T05:06:23;18.30;99.90
18450;DHT22;9354;50.194;7.690;2023-06-10T05:08:50;18.40;99.90
18450;DHT22;9354;50.194;7.690;2023-06-10T05:11:18;18.50;99.90
18450;DHT22;9354;50.194;7.690;2023-06-10T05:13:45;18.60;99.90
18450;DHT22;9354;50.194;7.690;2023-06-10T05:16:12;18.60;99.90
18450;DHT22;9354;50.194;7.690;2023-06-10T05:18:41;18.60;99.90
18450;DHT22;9354;50.194;7.690;2023-06-10T05:21:10;18.60;99.90
18450;DHT22;9354;50.194;7.690;2023-06-10T05:23:37;18.70;99.90
18450;DHT22;9354;50.194;7.690;2023-06-10T05:26:05;18.80;99.90
18450;DHT22;9354;50.194;7.690;2023-06-10T05:28:32;18.80;99.90
18450;DHT22;9354;50.194;7.690;2023-06-10T05:30:59;18.90;99.90
18450;DHT22;9354;50.194;7.690;2023-06-10T05:33:27;18.90;99.90
18450;DHT22;9354;50.194;7.690;2023-06-10T05:35:54;19.00;99.90
18450;DHT22;9354;50.194;7.690;2023-06-10T05:38:23;19.00;99.90
18450;DHT22;9354;50.194;7.690;2023-06-10T05:40:51;19.10;99.90
18450;DHT22;9354;50.194;7.690;2023-06-10T05:43:18;19.10;99.90
18450;DHT22;9354;50.194;7.690;2023-06-10T05:45:45;19.10;99.90
18450;DHT22;9354;50.194;7.690;2023-06-10T05:48:13;19.20;99.90
18450;DHT22;9354;50.194;7.690;2023-06-10T05:50:40;19.20;99.90
18450;DHT22;9354;50.194;7.690;2023-06-10T05:53:10;19.30;99.90
18450;DHT22;9354;50.194;7.690;2023-06-10T05:55:42;19.30;99.90
18450;DHT22;9354;50.194;7.690;2023-06-10T05:58:13;19.40;99.90
18450;DHT22;9354;50.194;7.690;2023-06-10T06:00:41;19.50;99.90
18450;DHT22;9354;50.194;7.690;2023-06-10T06:03:08;19.50;99.90
18450;DHT22;9354;50.194;7.690;2023-06-10T06:05:37;19.60;99.90
18450;DHT22;9354;50.194;7.690;2023-06-10T06:08:04;19.70;99.90
18450;DHT22;9354;50.194;7.690;2023-06-10T06:10:32;19.70;99.90
18450;DHT22;9354;50.194;7.690;2023-06-10T06:13:01;19.80;99.90
18450;DHT22;9354;50.194;7.690;2023-06-10T06:15:29;19.80;99.90
18450;DHT22;9354;50.194;7.690;2023-06-10T06:17:56;19.80;99.90
18450;DHT22;9354;50.194;7.690;2023-06-10T06:20:24;19.80;99.90
18450;DHT22;9354;50.194;7.690;2023-06-10T06:22:51;19.90;99.90
18450;DHT22;9354;50.194;7.690;2023-06-10T06:25:18;20.00;99.90
18450;DHT22;9354;50.194;7.690;2023-06-10T06:27:46;20.10;99.90
18450;DHT22;9354;50.194;7.690;2023-06-10T06:30:15;20.10;99.90
18450;DHT22;9354;50.194;7.690;2023-06-10T06:32:42;20.10;99.90
18450;DHT22;9354;50.194;7.690;2023-06-10T06:35:09;20.20;99.90
18450;DHT22;9354;50.194;7.690;2023-06-10T06:37:37;20.20;99.90
18450;DHT22;9354;50.194;7.690;2023-06-10T06:40:05;20.30;99.90
18450;DHT22;9354;50.194;7.690;2023-06-10T06:42:33;20.30;99.90
18450;DHT22;9354;50.194;7.690;2023-06-10T06:45:00;20.40;99.90
18450;DHT22;9354;50.194;7.690;2023-06-10T06:47:29;20.40;99.90
18450;DHT22;9354;50.194;7.690;2023-06-10T06:49:57;20.50;99.90
18450;DHT22;9354;50.194;7.690;2023-06-10T06:52:24;20.50;99.90
18450;DHT22;9354;50.194;7.690;2023-06-10T06:54:51;20.60;99.90
18450;DHT22;9354;50.194;7.690;2023-06-10T06:57:19;20.70;99.90
18450;DHT22;9354;50.194;7.690;2023-06-10T06:59:46;20.70;99.90
18450;DHT22;9354;50.194;7.690;2023-06-10T07:02:13;20.80;99.90
18450;DHT22;9354;50.194;7.690;2023-06-10T07:04:42;20.80;99.90
18450;DHT22;9354;50.194;7.690;2023-06-10T07:07:10;20.90;99.90
18450;DHT22;9354;50.194;7.690;2023-06-10T07:09:37;21.00;99.90
18450;DHT22;9354;50.194;7.690;2023-06-10T07:12:06;21.00;99.90
18450;DHT22;9354;50.194;7.690;2023-06-10T07:14:33;21.10;99.90
18450;DHT22;9354;50.194;7.690;2023-06-10T07:17:00;21.10;99.90
18450;DHT22;9354;50.194;7.690;2023-06-10T07:19:28;21.20;99.90
18450;DHT22;9354;50.194;7.690;2023-06-10T07:21:57;21.30;99.90
18450;DHT22;9354;50.194;7.690;2023-06-10T07:24:24;21.40;99.90
18450;DHT22;9354;50.194;7.690;2023-06-10T07:26:51;21.40;99.90
18450;DHT22;9354;50.194;7.690;2023-06-10T07:29:19;21.50;99.90
18450;DHT22;9354;50.194;7.690;2023-06-10T07:31:46;21.60;99.90
18450;DHT22;9354;50.194;7.690;2023-06-10T07:34:13;21.60;99.90
18450;DHT22;9354;50.194;7.690;2023-06-10T07:36:41;21.70;99.90
18450;DHT22;9354;50.194;7.690;2023-06-10T07:39:10;21.80;99.90
18450;DHT22;9354;50.194;7.690;2023-06-10T07:41:37;21.90;99.90
18450;DHT22;9354;50.194;7.690;2023-06-10T07:44:04;22.00;99.90
18450;DHT22;9354;50.194;7.690;2023-06-10T07:46:32;22.00;99.90
18450;DHT22;9354;50.194;7.690;2023-06-10T07:48:59;22.10;99.90
18450;DHT22;9354;50.194;7.690;2023-06-10T07:51:27;22.20;99.90
18450;DHT22;9354;50.194;7.690;2023-06-10T07:53:54;22.20;99.90
18450;DHT22;9354;50.194;7.690;2023-06-10T07:56:23;22.40;99.90
18450;DHT22;9354;50.194;7.690;2023-06-10T07:58:51;22.50;99.90
18450;DHT22;9354;50.194;7.690;2023-06-10T08:01:19;22.50;99.90
18450;DHT22;9354;50.194;7.690;2023-06-10T08:03:46;22.70;99.90
18450;DHT22;9354;50.194;7.690;2023-06-10T08:06:14;22.80;99.90
18450;DHT22;9354;50.194;7.690;2023-06-10T08:08:43;23.00;99.90
18450;DHT22;9354;50.194;7.690;2023-06-10T08:11:11;23.20;99.90
18450;DHT22;9354;50.194;7.690;2023-06-10T08:13:40;23.30;99.90
18450;DHT22;9354;50.194;7.690;2023-06-10T08:16:08;23.50;99.90
18450;DHT22;9354;50.194;7.690;2023-06-10T08:18:36;23.70;99.90
18450;DHT22;9354;50.194;7.690;2023-06-10T08:21:03;23.90;99.90
18450;DHT22;9354;50.194;7.690;2023-06-10T08:23:31;24.10;99.90
18450;DHT22;9354;50.194;7.690;2023-06-10T08:25:58;24.30;99.90
18450;DHT22;9354;50.194;7.690;2023-06-10T08:28:25;24.40;99.90
18450;DHT22;9354;50.194;7.690;2023-06-10T08:30:54;24.60;99.90
18450;DHT22;9354;50.194;7.690;2023-06-10T08:33:21;24.80;99.90
18450;DHT22;9354;50.194;7.690;2023-06-10T08:35:49;25.00;99.90
18450;DHT22;9354;50.194;7.690;2023-06-10T08:38:16;25.30;99.90
18450;DHT22;9354;50.194;7.690;2023-06-10T08:40:44;25.50;99.90
18450;DHT22;9354;50.194;7.690;2023-06-10T08:43:22;25.80;99.90
18450;DHT22;9354;50.194;7.690;2023-06-10T08:46:00;25.90;99.90
18450;DHT22;9354;50.194;7.690;2023-06-10T08:48:29;26.20;99.90
18450;DHT22;9354;50.194;7.690;2023-06-10T08:50:57;26.40;99.90
18450;DHT22;9354;50.194;7.690;2023-06-10T08:53:26;26.60;99.90
18450;DHT22;9354;50.194;7.690;2023-06-10T08:55:55;26.80;99.90
18450;DHT22;9354;50.194;7.690;2023-06-10T08:58:26;27.00;98.50
18450;DHT22;9354;50.194;7.690;2023-06-10T09:00:54;27.10;99.00
18450;DHT22;9354;50.194;7.690;2023-06-10T09:03:23;27.30;99.00
18450;DHT22;9354;50.194;7.690;2023-06-10T09:05:51;27.40;98.60
18450;DHT22;9354;50.194;7.690;2023-06-10T09:08:19;27.60;98.60
18450;DHT22;9354;50.194;7.690;2023-06-10T09:10:47;27.70;98.50
18450;DHT22;9354;50.194;7.690;2023-06-10T09:13:15;27.80;98.50
18450;DHT22;9354;50.194;7.690;2023-06-10T09:15:44;27.90;98.40
18450;DHT22;9354;50.194;7.690;2023-06-10T09:18:12;28.00;98.30
18450;DHT22;9354;50.194;7.690;2023-06-10T09:20:42;28.10;97.90
18450;DHT22;9354;50.194;7.690;2023-06-10T09:23:10;28.20;98.00
18450;DHT22;9354;50.194;7.690;2023-06-10T09:25:38;28.30;97.70
18450;DHT22;9354;50.194;7.690;2023-06-10T09:28:13;28.50;97.30
18450;DHT22;9354;50.194;7.690;2023-06-10T09:30:40;28.50;96.90
18450;DHT22;9354;50.194;7.690;2023-06-10T09:33:11;28.60;96.60
18450;DHT22;9354;50.194;7.690;2023-06-10T09:35:46;28.70;96.90
18450;DHT22;9354;50.194;7.690;2023-06-10T09:38:15;28.90;96.30
18450;DHT22;9354;50.194;7.690;2023-06-10T09:40:49;29.10;96.50
18450;DHT22;9354;50.194;7.690;2023-06-10T09:43:18;29.40;96.40
18450;DHT22;9354;50.194;7.690;2023-06-10T09:45:48;29.50;96.00
18450;DHT22;9354;50.194;7.690;2023-06-10T09:48:15;29.60;95.50
18450;DHT22;9354;50.194;7.690;2023-06-10T09:50:47;29.60;95.30
18450;DHT22;9354;50.194;7.690;2023-06-10T09:53:17;29.60;95.30
18450;DHT22;9354;50.194;7.690;2023-06-10T09:55:45;29.70;95.40
18450;DHT22;9354;50.194;7.690;2023-06-10T09:58:12;29.70;94.90
18450;DHT22;9354;50.194;7.690;2023-06-10T10:00:39;29.70;94.30
18450;DHT22;9354;50.194;7.690;2023-06-10T10:03:07;29.70;94.10
18450;DHT22;9354;50.194;7.690;2023-06-10T10:05:34;29.70;93.90
18450;DHT22;9354;50.194;7.690;2023-06-10T10:08:03;29.70;94.10
18450;DHT22;9354;50.194;7.690;2023-06-10T10:10:31;29.70;94.00
18450;DHT22;9354;50.194;7.690;2023-06-10T10:12:58;29.90;94.60
18450;DHT22;9354;50.194;7.690;2023-06-10T10:15:29;30.00;95.00
18450;DHT22;9354;50.194;7.690;2023-06-10T10:18:04;30.10;94.10
18450;DHT22;9354;50.194;7.690;2023-06-10T10:20:34;30.20;93.20
18450;DHT22;9354;50.194;7.690;2023-06-10T10:23:03;30.20;92.60
18450;DHT22;9354;50.194;7.690;2023-06-10T10:25:35;30.20;91.90
18450;DHT22;9354;50.194;7.690;2023-06-10T10:28:08;30.20;91.70
18450;DHT22;9354;50.194;7.690;2023-06-10T10:30:40;30.30;91.40
18450;DHT22;9354;50.194;7.690;2023-06-10T10:33:13;30.30;91.60
18450;DHT22;9354;50.194;7.690;2023-06-10T10:35:43;30.40;91.30
18450;DHT22;9354;50.194;7.690;2023-06-10T10:38:13;30.40;91.20
18450;DHT22;9354;50.194;7.690;2023-06-10T10:40:41;30.60;91.30
18450;DHT22;9354;50.194;7.690;2023-06-10T10:43:09;30.70;91.20
18450;DHT22;9354;50.194;7.690;2023-06-10T10:45:37;30.70;90.70
18450;DHT22;9354;50.194;7.690;2023-06-10T10:48:07;30.80;90.00
18450;DHT22;9354;50.194;7.690;2023-06-10T10:50:38;30.80;89.80
18450;DHT22;9354;50.194;7.690;2023-06-10T10:53:06;30.90;89.80
18450;DHT22;9354;50.194;7.690;2023-06-10T10:55:35;30.90;89.50
18450;DHT22;9354;50.194;7.690;2023-06-10T10:58:04;30.90;88.70
18450;DHT22;9354;50.194;7.690;2023-06-10T11:00:33;31.00;88.30
18450;DHT22;9354;50.194;7.690;2023-06-10T11:03:05;31.00;88.30
18450;DHT22;9354;50.194;7.690;2023-06-10T11:05:38;31.00;88.00
18450;DHT22;9354;50.194;7.690;2023-06-10T11:08:08;31.10;88.00
18450;DHT22;9354;50.194;7.690;2023-06-10T11:10:38;31.10;89.00
18450;DHT22;9354;50.194;7.690;2023-06-10T11:13:07;31.30;88.50
18450;DHT22;9354;50.194;7.690;2023-06-10T11:15:39;31.40;88.00
18450;DHT22;9354;50.194;7.690;2023-06-10T11:18:14;31.30;87.00
18450;DHT22;9354;50.194;7.690;2023-06-10T11:20:51;31.20;87.60
18450;DHT22;9354;50.194;7.690;2023-06-10T11:23:41;31.00;86.60
18450;DHT22;9354;50.194;7.690;2023-06-10T11:26:29;30.70;86.50
18450;DHT22;9354;50.194;7.690;2023-06-10T11:29:06;30.60;88.10
18450;DHT22;9354;50.194;7.690;2023-06-10T11:31:45;30.70;86.90
18450;DHT22;9354;50.194;7.690;2023-06-10T11:34:13;30.70;86.50
18450;DHT22;9354;50.194;7.690;2023-06-10T11:36:42;30.80;86.60
18450;DHT22;9354;50.194;7.690;2023-06-10T11:39:11;30.90;86.50
18450;DHT22;9354;50.194;7.690;2023-06-10T11:41:40;31.00;87.00
18450;DHT22;9354;50.194;7.690;2023-06-10T11:44:09;31.00;86.60
18450;DHT22;9354;50.194;7.690;2023-06-10T11:46:36;31.10;86.40
18450;DHT22;9354;50.194;7.690;2023-06-10T11:49:05;31.20;85.00
18450;DHT22;9354;50.194;7.690;2023-06-10T11:51:34;31.10;84.00
18450;DHT22;9354;50.194;7.690;2023-06-10T11:54:02;31.00;83.40
18450;DHT22;9354;50.194;7.690;2023-06-10T11:56:31;31.00;83.20
18450;DHT22;9354;50.194;7.690;2023-06-10T11:59:01;30.90;83.20
18450;DHT22;9354;50.194;7.690;2023-06-10T12:01:31;30.90;82.40
18450;DHT22;9354;50.194;7.690;2023-06-10T12:04:01;31.00;82.80
18450;DHT22;9354;50.194;7.690;2023-06-10T12:06:38;31.20;81.30
18450;DHT22;9354;50.194;7.690;2023-06-10T12:09:06;31.20;78.90
18450;DHT22;9354;50.194;7.690;2023-06-10T12:11:34;31.10;78.60
18450;DHT22;9354;50.194;7.690;2023-06-10T12:14:03;31.10;78.40
18450;DHT22;9354;50.194;7.690;2023-06-10T12:16:31;31.20;78.70
18450;DHT22;9354;50.194;7.690;2023-06-10T12:19:02;31.30;79.70
18450;DHT22;9354;50.194;7.690;2023-06-10T12:21:31;31.40;78.70
18450;DHT22;9354;50.194;7.690;2023-06-10T12:24:03;31.60;79.40
18450;DHT22;9354;50.194;7.690;2023-06-10T12:26:35;31.80;79.20
18450;DHT22;9354;50.194;7.690;2023-06-10T12:29:17;32.00;78.80
18450;DHT22;9354;50.194;7.690;2023-06-10T12:31:59;32.10;78.50
18450;DHT22;9354;50.194;7.690;2023-06-10T12:34:31;32.20;78.10
18450;DHT22;9354;50.194;7.690;2023-06-10T12:36:58;32.20;78.00
18450;DHT22;9354;50.194;7.690;2023-06-10T12:39:26;32.30;78.40
18450;DHT22;9354;50.194;7.690;2023-06-10T12:41:53;32.40;78.70
18450;DHT22;9354;50.194;7.690;2023-06-10T12:44:30;32.30;78.60
18450;DHT22;9354;50.194;7.690;2023-06-10T12:46:58;32.10;78.60
18450;DHT22;9354;50.194;7.690;2023-06-10T12:49:25;31.80;77.90
18450;DHT22;9354;50.194;7.690;2023-06-10T12:51:53;31.40;78.40
18450;DHT22;9354;50.194;7.690;2023-06-10T12:54:21;31.30;79.20
18450;DHT22;9354;50.194;7.690;2023-06-10T12:56:49;31.30;79.60
18450;DHT22;9354;50.194;7.690;2023-06-10T12:59:17;31.40;79.70
18450;DHT22;9354;50.194;7.690;2023-06-10T13:01:50;31.30;79.80
18450;DHT22;9354;50.194;7.690;2023-06-10T13:04:18;31.10;80.10
18450;DHT22;9354;50.194;7.690;2023-06-10T13:06:45;30.80;79.80
18450;DHT22;9354;50.194;7.690;2023-06-10T13:09:13;30.60;79.80
18450;DHT22;9354;50.194;7.690;2023-06-10T13:11:41;30.40;81.20
18450;DHT22;9354;50.194;7.690;2023-06-10T13:14:11;30.50;81.30
18450;DHT22;9354;50.194;7.690;2023-06-10T13:16:38;30.70;81.20
18450;DHT22;9354;50.194;7.690;2023-06-10T13:19:07;31.00;81.00
18450;DHT22;9354;50.194;7.690;2023-06-10T13:21:34;31.30;80.50
18450;DHT22;9354;50.194;7.690;2023-06-10T13:24:03;31.50;79.90
18450;DHT22;9354;50.194;7.690;2023-06-10T13:26:30;31.40;79.20
18450;DHT22;9354;50.194;7.690;2023-06-10T13:28:58;31.20;79.70
18450;DHT22;9354;50.194;7.690;2023-06-10T13:31:25;31.00;80.00
18450;DHT22;9354;50.194;7.690;2023-06-10T13:33:52;30.90;80.60
18450;DHT22;9354;50.194;7.690;2023-06-10T13:36:21;31.00;79.80
18450;DHT22;9354;50.194;7.690;2023-06-10T13:38:49;31.20;78.10
18450;DHT22;9354;50.194;7.690;2023-06-10T13:41:16;31.30;77.70
18450;DHT22;9354;50.194;7.690;2023-06-10T13:43:44;31.50;77.90
18450;DHT22;9354;50.194;7.690;2023-06-10T13:46:11;31.70;78.00
18450;DHT22;9354;50.194;7.690;2023-06-10T13:48:39;31.80;77.80
18450;DHT22;9354;50.194;7.690;2023-06-10T13:51:06;31.90;77.10
18450;DHT22;9354;50.194;7.690;2023-06-10T13:53:36;31.90;76.40
18450;DHT22;9354;50.194;7.690;2023-06-10T13:56:04;31.90;76.70
18450;DHT22;9354;50.194;7.690;2023-06-10T13:58:31;31.90;75.50
18450;DHT22;9354;50.194;7.690;2023-06-10T14:00:59;31.70;76.10
18450;DHT22;9354;50.194;7.690;2023-06-10T14:03:27;31.70;76.30
18450;DHT22;9354;50.194;7.690;2023-06-10T14:05:54;31.80;75.30
18450;DHT22;9354;50.194;7.690;2023-06-10T14:08:22;31.90;74.60
18450;DHT22;9354;50.194;7.690;2023-06-10T14:10:50;32.00;75.10
18450;DHT22;9354;50.194;7.690;2023-06-10T14:13:21;32.10;75.80
18450;DHT22;9354;50.194;7.690;2023-06-10T14:15:48;32.20;74.60
18450;DHT22;9354;50.194;7.690;2023-06-10T14:18:15;32.20;73.60
18450;DHT22;9354;50.194;7.690;2023-06-10T14:20:43;32.20;74.10
18450;DHT22;9354;50.194;7.690;2023-06-10T14:23:10;32.30;73.50
18450;DHT22;9354;50.194;7.690;2023-06-10T14:25:37;32.20;73.20
18450;DHT22;9354;50.194;7.690;2023-06-10T14:28:06;32.20;72.80
18450;DHT22;9354;50.194;7.690;2023-06-10T14:30:34;32.20;73.00
18450;DHT22;9354;50.194;7.690;2023-06-10T14:33:01;32.20;73.00
18450;DHT22;9354;50.194;7.690;2023-06-10T14:35:28;32.20;73.90
18450;DHT22;9354;50.194;7.690;2023-06-10T14:37:56;32.20;73.80
18450;DHT22;9354;50.194;7.690;2023-06-10T14:40:23;32.20;73.40
18450;DHT22;9354;50.194;7.690;2023-06-10T14:42:54;32.20;73.60
18450;DHT22;9354;50.194;7.690;2023-06-10T14:45:23;32.20;73.80
18450;DHT22;9354;50.194;7.690;2023-06-10T14:47:51;32.20;73.50
18450;DHT22;9354;50.194;7.690;2023-06-10T14:50:18;32.10;73.90
18450;DHT22;9354;50.194;7.690;2023-06-10T14:52:46;31.90;72.80
18450;DHT22;9354;50.194;7.690;2023-06-10T14:55:13;31.50;72.70
18450;DHT22;9354;50.194;7.690;2023-06-10T14:57:42;31.00;73.30
18450;DHT22;9354;50.194;7.690;2023-06-10T15:00:10;30.50;74.10
18450;DHT22;9354;50.194;7.690;2023-06-10T15:02:42;30.30;75.50
18450;DHT22;9354;50.194;7.690;2023-06-10T15:05:10;30.40;76.20
18450;DHT22;9354;50.194;7.690;2023-06-10T15:07:37;30.40;75.80
18450;DHT22;9354;50.194;7.690;2023-06-10T15:10:06;30.50;75.50
18450;DHT22;9354;50.194;7.690;2023-06-10T15:12:33;30.60;75.60
18450;DHT22;9354;50.194;7.690;2023-06-10T15:15:01;30.80;76.40
18450;DHT22;9354;50.194;7.690;2023-06-10T15:17:28;30.90;78.60
18450;DHT22;9354;50.194;7.690;2023-06-10T15:19:57;31.10;78.50
18450;DHT22;9354;50.194;7.690;2023-06-10T15:22:25;31.20;77.30
18450;DHT22;9354;50.194;7.690;2023-06-10T15:24:52;31.20;75.90
18450;DHT22;9354;50.194;7.690;2023-06-10T15:27:20;31.20;74.80
18450;DHT22;9354;50.194;7.690;2023-06-10T15:29:49;31.10;75.30
18450;DHT22;9354;50.194;7.690;2023-06-10T15:32:17;31.10;75.60
18450;DHT22;9354;50.194;7.690;2023-06-10T15:34:45;31.10;75.60
18450;DHT22;9354;50.194;7.690;2023-06-10T15:37:15;31.10;75.90
18450;DHT22;9354;50.194;7.690;2023-06-10T15:39:42;31.10;75.90
18450;DHT22;9354;50.194;7.690;2023-06-10T15:42:09;31.20;75.80
18450;DHT22;9354;50.194;7.690;2023-06-10T15:44:37;31.20;75.60
18450;DHT22;9354;50.194;7.690;2023-06-10T15:47:04;31.20;75.50
18450;DHT22;9354;50.194;7.690;2023-06-10T15:49:32;31.30;75.80
18450;DHT22;9354;50.194;7.690;2023-06-10T15:51:59;31.20;75.60
18450;DHT22;9354;50.194;7.690;2023-06-10T15:54:28;31.10;75.40